createdAt,value
2017-07-15T00:00:03.146Z,784.02
2017-07-15T00:00:07.219Z,784.05
2017-07-15T00:00:11.041Z,784.04
2017-07-15T00:00:15.003Z,784
2017-07-15T00:00:19.338Z,783.99
2017-07-15T00:00:23.573Z,784.05
2017-07-15T00:00:27.775Z,784.04
2017-07-15T00:00:31.962Z,784.01
2017-07-15T00:00:36.038Z,784
2017-07-15T00:00:39.991Z,784.03
2017-07-15T00:00:44.333Z,784.05
2017-07-15T00:00:48.404Z,784.02
2017-07-15T00:00:52.481Z,783.99
2017-07-15T00:00:56.698Z,784.04
2017-07-15T00:01:00.661Z,784.03
2017-07-15T00:01:04.788Z,784.06
2017-07-15T00:01:08.608Z,784.02
2017-07-15T00:01:12.685Z,784.03
2017-07-15T00:01:16.882Z,784.05
2017-07-15T00:01:20.960Z,784.04
2017-07-15T00:01:25.043Z,784.02
2017-07-15T00:01:28.878Z,784.06
2017-07-15T00:01:32.854Z,784.01
2017-07-15T00:01:36.792Z,784.06
2017-07-15T00:01:41.002Z,784.07
2017-07-15T00:01:44.978Z,784.05
2017-07-15T00:01:49.176Z,784.03
2017-07-15T00:01:53.014Z,784.06
2017-07-15T00:01:57.106Z,784.06
2017-07-15T00:02:01.433Z,784.06
2017-07-15T00:02:05.624Z,784
2017-07-15T00:02:09.589Z,784.04
2017-07-15T00:02:13.784Z,784.05
2017-07-15T00:02:17.611Z,784.04
2017-07-15T00:02:21.960Z,784.06
2017-07-15T00:02:25.795Z,784.08
2017-07-15T00:02:30.129Z,784.07
2017-07-15T00:02:34.346Z,784.05
2017-07-15T00:02:38.300Z,784.02
2017-07-15T00:02:42.405Z,784.06
2017-07-15T00:02:46.607Z,784.05
2017-07-15T00:02:50.813Z,784.08
2017-07-15T00:02:54.902Z,784.09
2017-07-15T00:02:58.993Z,784.07
2017-07-15T00:03:03.329Z,784.09
2017-07-15T00:03:07.287Z,784.08
2017-07-15T00:03:11.486Z,784.09
2017-07-15T00:03:15.813Z,784.08
2017-07-15T00:03:19.889Z,784.1
2017-07-15T00:03:23.595Z,784.1
2017-07-15T00:03:27.802Z,784.1
2017-07-15T00:03:31.866Z,784.11
2017-07-15T00:03:35.946Z,784.05
2017-07-15T00:03:39.920Z,784.02
2017-07-15T00:03:44.014Z,784.1
2017-07-15T00:03:47.957Z,784.08
2017-07-15T00:03:52.173Z,784.12
2017-07-15T00:03:56.261Z,784.13
2017-07-15T00:04:00.224Z,784.08
2017-07-15T00:04:04.058Z,784.1
2017-07-15T00:04:08.024Z,784.13
2017-07-15T00:04:11.973Z,784.11
2017-07-15T00:04:15.800Z,784.1
2017-07-15T00:04:20.128Z,784.13
2017-07-15T00:04:24.203Z,784.14
2017-07-15T00:04:28.272Z,784.12
2017-07-15T00:04:32.340Z,784.14
2017-07-15T00:04:36.163Z,784.11
2017-07-15T00:04:40.228Z,784.16
2017-07-15T00:04:44.046Z,784.15
2017-07-15T00:04:47.749Z,784.17
2017-07-15T00:04:51.724Z,784.13
2017-07-15T00:04:55.811Z,784.15
2017-07-15T00:05:00.140Z,784.17
2017-07-15T00:05:04.090Z,784.16
2017-07-15T00:05:08.033Z,784.17
2017-07-15T00:05:12.105Z,784.14
2017-07-15T00:05:15.932Z,784.17
2017-07-15T00:05:20.026Z,784.19
2017-07-15T00:05:24.223Z,784.19
2017-07-15T00:05:28.306Z,784.16
2017-07-15T00:05:32.648Z,784.17
2017-07-15T00:05:36.609Z,784.16
2017-07-15T00:05:40.933Z,784.15
2017-07-15T00:05:45.002Z,784.18
2017-07-15T00:05:49.095Z,784.17
2017-07-15T00:05:53.191Z,784.16
2017-07-15T00:05:57.269Z,784.15
2017-07-15T00:06:01.218Z,784.18
2017-07-15T00:06:05.041Z,784.22
2017-07-15T00:06:09.117Z,784.19
2017-07-15T00:06:12.945Z,784.2
2017-07-15T00:06:17.150Z,784.22
2017-07-15T00:06:21.480Z,784.2
2017-07-15T00:06:25.435Z,784.21
2017-07-15T00:06:29.383Z,784.19
2017-07-15T00:06:33.598Z,784.23
2017-07-15T00:06:37.680Z,784.22
2017-07-15T00:06:41.757Z,784.22
2017-07-15T00:06:45.833Z,784.25
2017-07-15T00:06:50.041Z,784.27
2017-07-15T00:06:54.507Z,784.2
2017-07-15T00:06:58.710Z,784.25
2017-07-15T00:07:03.092Z,784.25
2017-07-15T00:07:07.051Z,784.26
2017-07-15T00:07:11.360Z,784.24
2017-07-15T00:07:15.866Z,784.26
2017-07-15T00:07:20.205Z,784.26
2017-07-15T00:07:24.397Z,784.28
2017-07-15T00:07:28.342Z,784.26
2017-07-15T00:07:32.291Z,784.27
2017-07-15T00:07:36.240Z,784.25
2017-07-15T00:07:40.575Z,784.27
2017-07-15T00:07:44.527Z,784.26
2017-07-15T00:07:48.334Z,784.28
2017-07-15T00:07:52.659Z,784.29
2017-07-15T00:07:56.888Z,784.27
2017-07-15T00:08:00.964Z,784.25
2017-07-15T00:08:05.168Z,784.29
2017-07-15T00:08:09.366Z,784.3
2017-07-15T00:08:13.830Z,784.3
2017-07-15T00:08:17.908Z,784.29
2017-07-15T00:08:22.005Z,784.32
2017-07-15T00:08:26.214Z,784.3
2017-07-15T00:08:30.296Z,784.34
2017-07-15T00:08:34.368Z,784.32
2017-07-15T00:08:38.453Z,784.3
2017-07-15T00:08:42.523Z,784.3
2017-07-15T00:08:46.849Z,784.3
2017-07-15T00:08:51.056Z,784.29
2017-07-15T00:08:55.135Z,784.32
2017-07-15T00:08:59.354Z,784.32
2017-07-15T00:09:03.421Z,784.33
2017-07-15T00:09:07.492Z,784.35
2017-07-15T00:09:11.564Z,784.36
2017-07-15T00:09:15.381Z,784.36
2017-07-15T00:09:19.701Z,784.36
2017-07-15T00:09:24.033Z,784.35
2017-07-15T00:09:27.988Z,784.36
2017-07-15T00:09:32.325Z,784.39
2017-07-15T00:09:36.279Z,784.39
2017-07-15T00:09:40.490Z,784.35
2017-07-15T00:09:44.716Z,784.31
2017-07-15T00:09:49.056Z,784.33
2017-07-15T00:09:53.273Z,784.33
2017-07-15T00:09:57.479Z,784.34
2017-07-15T00:10:01.702Z,784.37
2017-07-15T00:10:05.789Z,784.38
2017-07-15T00:10:10.004Z,784.39
2017-07-15T00:10:13.956Z,784.37
2017-07-15T00:10:18.028Z,784.39
2017-07-15T00:10:22.101Z,784.36
2017-07-15T00:10:25.919Z,784.39
2017-07-15T00:10:30.137Z,784.42
2017-07-15T00:10:34.211Z,784.43
2017-07-15T00:10:38.308Z,784.44
2017-07-15T00:10:42.509Z,784.43
2017-07-15T00:10:46.460Z,784.45
2017-07-15T00:10:50.667Z,784.41
2017-07-15T00:10:54.868Z,784.43
2017-07-15T00:10:59.101Z,784.43
2017-07-15T00:11:03.060Z,784.45
2017-07-15T00:11:07.015Z,784.45
2017-07-15T00:11:11.226Z,784.44
2017-07-15T00:11:15.416Z,784.44
2017-07-15T00:11:19.857Z,784.45
2017-07-15T00:11:23.935Z,784.46
2017-07-15T00:11:28.268Z,784.5
2017-07-15T00:11:32.368Z,784.46
2017-07-15T00:11:36.324Z,784.47
2017-07-15T00:11:40.651Z,784.47
2017-07-15T00:11:44.620Z,784.44
2017-07-15T00:11:48.717Z,784.44
2017-07-15T00:11:53.050Z,784.49
2017-07-15T00:11:57.131Z,784.5
2017-07-15T00:12:01.340Z,784.49
2017-07-15T00:12:05.427Z,784.51
2017-07-15T00:12:09.376Z,784.49
2017-07-15T00:12:13.331Z,784.5
2017-07-15T00:12:17.660Z,784.49
2017-07-15T00:12:21.614Z,784.51
2017-07-15T00:12:25.570Z,784.51
2017-07-15T00:12:29.775Z,784.52
2017-07-15T00:12:34.124Z,784.52
2017-07-15T00:12:37.949Z,784.53
2017-07-15T00:12:42.266Z,784.53
2017-07-15T00:12:46.489Z,784.54
2017-07-15T00:12:50.820Z,784.54
2017-07-15T00:12:54.784Z,784.58
2017-07-15T00:12:58.874Z,784.56
2017-07-15T00:13:03.158Z,784.54
2017-07-15T00:13:07.221Z,784.58
2017-07-15T00:13:11.283Z,784.54
2017-07-15T00:13:15.378Z,784.54
2017-07-15T00:13:19.471Z,784.57
2017-07-15T00:13:23.543Z,784.61
2017-07-15T00:13:27.365Z,784.59
2017-07-15T00:13:31.435Z,784.58
2017-07-15T00:13:35.405Z,784.59
2017-07-15T00:13:39.597Z,784.59
2017-07-15T00:13:43.803Z,784.6
2017-07-15T00:13:47.634Z,784.63
2017-07-15T00:13:52.097Z,784.63
2017-07-15T00:13:56.060Z,784.6
2017-07-15T00:14:00.385Z,784.64
2017-07-15T00:14:04.400Z,784.64
2017-07-15T00:14:08.244Z,784.63
2017-07-15T00:14:12.048Z,784.64
2017-07-15T00:14:16.126Z,784.63
2017-07-15T00:14:20.349Z,784.65
2017-07-15T00:14:24.424Z,784.63
2017-07-15T00:14:28.368Z,784.63
2017-07-15T00:14:32.579Z,784.63
2017-07-15T00:14:36.660Z,784.61
2017-07-15T00:14:40.608Z,784.64
2017-07-15T00:14:44.692Z,784.63
2017-07-15T00:14:48.783Z,784.65
2017-07-15T00:14:52.730Z,784.63
2017-07-15T00:14:56.812Z,784.59
2017-07-15T00:15:01.015Z,784.64
2017-07-15T00:15:05.307Z,784.69
2017-07-15T00:15:09.143Z,784.69
2017-07-15T00:15:13.209Z,784.69
2017-07-15T00:15:17.157Z,784.7
2017-07-15T00:15:21.361Z,784.71
2017-07-15T00:15:25.567Z,784.69
2017-07-15T00:15:29.526Z,784.69
2017-07-15T00:15:33.597Z,784.68
2017-07-15T00:15:37.548Z,784.68
2017-07-15T00:15:41.759Z,784.69
2017-07-15T00:15:45.828Z,784.67
2017-07-15T00:15:50.034Z,784.69
2017-07-15T00:15:54.107Z,784.7
2017-07-15T00:15:58.320Z,784.67
2017-07-15T00:16:02.264Z,784.7
2017-07-15T00:16:06.093Z,784.71
2017-07-15T00:16:10.181Z,784.7
2017-07-15T00:16:14.120Z,784.72
2017-07-15T00:16:17.953Z,784.74
2017-07-15T00:16:22.302Z,784.69
2017-07-15T00:16:26.546Z,784.73
2017-07-15T00:16:30.616Z,784.71
2017-07-15T00:16:34.578Z,784.72
2017-07-15T00:16:38.268Z,784.72
2017-07-15T00:16:42.736Z,784.73
2017-07-15T00:16:47.046Z,784.72
2017-07-15T00:16:50.865Z,784.71
2017-07-15T00:16:55.229Z,784.72
2017-07-15T00:16:59.445Z,784.73
2017-07-15T00:17:03.517Z,784.74
2017-07-15T00:17:07.348Z,784.72
2017-07-15T00:17:11.426Z,784.74
2017-07-15T00:17:15.390Z,784.73
2017-07-15T00:17:19.478Z,784.67
2017-07-15T00:17:23.694Z,784.69
2017-07-15T00:17:28.035Z,784.68
2017-07-15T00:17:32.233Z,784.72
2017-07-15T00:17:36.314Z,784.73
2017-07-15T00:17:40.390Z,784.71
2017-07-15T00:17:44.474Z,784.71
2017-07-15T00:17:48.790Z,784.72
2017-07-15T00:17:52.613Z,784.73
2017-07-15T00:17:56.832Z,784.71
2017-07-15T00:18:00.921Z,784.73
2017-07-15T00:18:05.250Z,784.73
2017-07-15T00:18:09.208Z,784.71
2017-07-15T00:18:13.164Z,784.72
2017-07-15T00:18:17.610Z,784.7
2017-07-15T00:18:21.552Z,784.75
2017-07-15T00:18:25.496Z,784.76
2017-07-15T00:18:29.588Z,784.76
2017-07-15T00:18:33.680Z,784.76
2017-07-15T00:18:37.741Z,784.73
2017-07-15T00:18:41.837Z,784.71
2017-07-15T00:18:45.914Z,784.7
2017-07-15T00:18:49.861Z,784.73
2017-07-15T00:18:53.809Z,784.79
2017-07-15T00:18:58.018Z,784.71
2017-07-15T00:19:02.104Z,784.77
2017-07-15T00:19:05.932Z,784.76
2017-07-15T00:19:09.999Z,784.77
2017-07-15T00:19:14.365Z,784.79
2017-07-15T00:19:18.577Z,784.79
2017-07-15T00:19:22.785Z,784.79
2017-07-15T00:19:27.112Z,784.8
2017-07-15T00:19:31.487Z,784.81
2017-07-15T00:19:35.681Z,784.74
2017-07-15T00:19:39.638Z,784.75
2017-07-15T00:19:43.730Z,784.79
2017-07-15T00:19:47.950Z,784.79
2017-07-15T00:19:52.301Z,784.79
2017-07-15T00:19:56.382Z,784.81
2017-07-15T00:20:00.714Z,784.82
2017-07-15T00:20:04.682Z,784.85
2017-07-15T00:20:08.885Z,784.81
2017-07-15T00:20:12.705Z,784.86
2017-07-15T00:20:16.520Z,784.81
2017-07-15T00:20:20.886Z,784.82
2017-07-15T00:20:25.097Z,784.82
2017-07-15T00:20:29.194Z,784.83
2017-07-15T00:20:33.664Z,784.81
2017-07-15T00:20:37.362Z,784.81
2017-07-15T00:20:41.178Z,784.83
2017-07-15T00:20:45.255Z,784.82
2017-07-15T00:20:49.585Z,784.86
2017-07-15T00:20:53.845Z,784.84
2017-07-15T00:20:57.922Z,784.77
2017-07-15T00:21:01.878Z,784.83
2017-07-15T00:21:06.176Z,784.82
2017-07-15T00:21:10.137Z,784.82
2017-07-15T00:21:14.222Z,784.81
2017-07-15T00:21:18.437Z,784.82
2017-07-15T00:21:22.523Z,784.83
2017-07-15T00:21:26.707Z,784.83
2017-07-15T00:21:30.534Z,784.89
2017-07-15T00:21:34.218Z,784.85
2017-07-15T00:21:37.906Z,784.84
2017-07-15T00:21:41.976Z,784.87
2017-07-15T00:21:45.936Z,784.87
2017-07-15T00:21:50.008Z,784.86
2017-07-15T00:21:54.102Z,784.86
2017-07-15T00:21:58.183Z,784.86
2017-07-15T00:22:02.365Z,784.86
2017-07-15T00:22:06.064Z,784.84
2017-07-15T00:22:09.766Z,784.88
2017-07-15T00:22:13.470Z,784.89
2017-07-15T00:22:17.170Z,784.86
2017-07-15T00:22:20.997Z,784.92
2017-07-15T00:22:24.693Z,784.87
2017-07-15T00:22:28.515Z,784.83
2017-07-15T00:22:32.212Z,784.86
2017-07-15T00:22:35.919Z,784.9
2017-07-15T00:22:39.607Z,784.88
2017-07-15T00:22:43.290Z,784.88
2017-07-15T00:22:46.979Z,784.89
2017-07-15T00:22:50.808Z,784.89
2017-07-15T00:22:54.511Z,784.9
2017-07-15T00:22:58.603Z,784.9
2017-07-15T00:23:02.401Z,784.88
2017-07-15T00:23:06.106Z,784.9
2017-07-15T00:23:09.812Z,784.92
2017-07-15T00:23:13.510Z,784.92
2017-07-15T00:23:17.205Z,784.95
2017-07-15T00:23:20.902Z,784.95
2017-07-15T00:23:24.724Z,784.93
2017-07-15T00:23:28.426Z,784.92
2017-07-15T00:23:32.132Z,784.94
2017-07-15T00:23:35.961Z,784.93
2017-07-15T00:23:39.657Z,784.92
2017-07-15T00:23:43.357Z,784.93
2017-07-15T00:23:47.052Z,784.89
2017-07-15T00:23:50.754Z,784.93
2017-07-15T00:23:54.565Z,784.91
2017-07-15T00:23:58.274Z,784.94
2017-07-15T00:24:02.094Z,784.94
2017-07-15T00:24:05.931Z,784.92
2017-07-15T00:24:09.624Z,784.96
2017-07-15T00:24:13.439Z,784.95
2017-07-15T00:24:17.260Z,784.95
2017-07-15T00:24:21.080Z,784.95
2017-07-15T00:24:25.030Z,784.98
2017-07-15T00:24:29.225Z,784.91
2017-07-15T00:24:33.567Z,784.94
2017-07-15T00:24:37.509Z,784.97
2017-07-15T00:24:41.600Z,784.97
2017-07-15T00:24:45.801Z,784.97
2017-07-15T00:24:50.011Z,784.96
2017-07-15T00:24:53.715Z,784.99
2017-07-15T00:24:57.790Z,784.95
2017-07-15T00:25:01.864Z,784.93
2017-07-15T00:25:05.548Z,784.93
2017-07-15T00:25:09.626Z,784.96
2017-07-15T00:25:13.706Z,784.97
2017-07-15T00:25:17.653Z,784.95
2017-07-15T00:25:21.848Z,784.93
2017-07-15T00:25:25.918Z,784.97
2017-07-15T00:25:29.765Z,784.97
2017-07-15T00:25:34.009Z,784.98
2017-07-15T00:25:37.948Z,784.97
2017-07-15T00:25:42.146Z,784.97
2017-07-15T00:25:46.620Z,784.95
2017-07-15T00:25:50.566Z,784.99
2017-07-15T00:25:54.632Z,784.98
2017-07-15T00:25:58.968Z,784.99
2017-07-15T00:26:02.923Z,784.98
2017-07-15T00:26:06.616Z,784.99
2017-07-15T00:26:10.837Z,784.98
2017-07-15T00:26:15.160Z,784.99
2017-07-15T00:26:19.372Z,785.01
2017-07-15T00:26:23.073Z,784.99
2017-07-15T00:26:27.287Z,784.97
2017-07-15T00:26:31.236Z,785
2017-07-15T00:26:35.441Z,785.02
2017-07-15T00:26:39.401Z,785.03
2017-07-15T00:26:43.719Z,785.03
2017-07-15T00:26:47.786Z,785.02
2017-07-15T00:26:51.997Z,784.99
2017-07-15T00:26:56.344Z,784.97
2017-07-15T00:27:00.444Z,784.97
2017-07-15T00:27:04.161Z,784.99
2017-07-15T00:27:08.198Z,784.98
2017-07-15T00:27:12.514Z,785.04
2017-07-15T00:27:16.963Z,785
2017-07-15T00:27:21.392Z,785.03
2017-07-15T00:27:25.621Z,785.06
2017-07-15T00:27:29.684Z,785.02
2017-07-15T00:27:33.896Z,785.03
2017-07-15T00:27:37.834Z,785.03
2017-07-15T00:27:42.051Z,785.02
2017-07-15T00:27:46.125Z,785.06
2017-07-15T00:27:50.469Z,785.04
2017-07-15T00:27:54.673Z,785.07
2017-07-15T00:27:58.639Z,785.03
2017-07-15T00:28:02.715Z,785.08
2017-07-15T00:28:06.938Z,785.07
2017-07-15T00:28:11.033Z,785.07
2017-07-15T00:28:15.115Z,785.07
2017-07-15T00:28:19.055Z,785.07
2017-07-15T00:28:22.753Z,785.09
2017-07-15T00:28:26.974Z,785.08
2017-07-15T00:28:30.918Z,785.1
2017-07-15T00:28:35.118Z,785.08
2017-07-15T00:28:39.192Z,785.07
2017-07-15T00:28:42.907Z,785.07
2017-07-15T00:28:47.130Z,785.07
2017-07-15T00:28:51.479Z,785.09
2017-07-15T00:28:55.681Z,785.08
2017-07-15T00:29:00.158Z,785.1
2017-07-15T00:29:04.002Z,785.1
2017-07-15T00:29:07.952Z,785.08
2017-07-15T00:29:12.053Z,785.08
2017-07-15T00:29:16.008Z,785.09
2017-07-15T00:29:20.089Z,785.09
2017-07-15T00:29:23.911Z,785.11
2017-07-15T00:29:28.125Z,785.12
2017-07-15T00:29:32.207Z,785.08
2017-07-15T00:29:36.152Z,785.1
2017-07-15T00:29:39.987Z,785.1
2017-07-15T00:29:43.687Z,785.12
2017-07-15T00:29:47.624Z,785.13
2017-07-15T00:29:51.838Z,785.11
2017-07-15T00:29:55.815Z,785.14
2017-07-15T00:29:59.894Z,785.1
2017-07-15T00:30:03.900Z,785.13
2017-07-15T00:30:07.851Z,785.11
2017-07-15T00:30:11.930Z,785.12
2017-07-15T00:30:15.875Z,785.12
2017-07-15T00:30:20.070Z,785.13
2017-07-15T00:30:24.288Z,785.14
2017-07-15T00:30:28.380Z,785.11
2017-07-15T00:30:32.570Z,785.15
2017-07-15T00:30:36.386Z,785.12
2017-07-15T00:30:40.468Z,785.14
2017-07-15T00:30:44.553Z,785.14
2017-07-15T00:30:48.749Z,785.17
2017-07-15T00:30:52.840Z,785.14
2017-07-15T00:30:56.802Z,785.15
2017-07-15T00:31:01.056Z,785.12
2017-07-15T00:31:05.235Z,785.15
2017-07-15T00:31:09.309Z,785.14
2017-07-15T00:31:13.376Z,785.15
2017-07-15T00:31:17.448Z,785.18
2017-07-15T00:31:21.782Z,785.16
2017-07-15T00:31:25.625Z,785.14
2017-07-15T00:31:29.695Z,785.14
2017-07-15T00:31:34.015Z,785.15
2017-07-15T00:31:37.835Z,785.16
2017-07-15T00:31:42.181Z,785.19
2017-07-15T00:31:46.141Z,785.18
2017-07-15T00:31:50.227Z,785.17
2017-07-15T00:31:54.440Z,785.18
2017-07-15T00:31:58.923Z,785.18
2017-07-15T00:32:02.723Z,785.19
2017-07-15T00:32:06.538Z,785.19
2017-07-15T00:32:10.617Z,785.2
2017-07-15T00:32:14.444Z,785.18
2017-07-15T00:32:18.147Z,785.18
2017-07-15T00:32:21.984Z,785.18
2017-07-15T00:32:26.176Z,785.2
2017-07-15T00:32:30.166Z,785.19
2017-07-15T00:32:33.840Z,785.16
2017-07-15T00:32:37.779Z,785.2
2017-07-15T00:32:42.096Z,785.18
2017-07-15T00:32:46.322Z,785.22
2017-07-15T00:32:50.395Z,785.23
2017-07-15T00:32:54.732Z,785.21
2017-07-15T00:32:58.941Z,785.24
2017-07-15T00:33:02.883Z,785.2
2017-07-15T00:33:07.078Z,785.2
2017-07-15T00:33:11.021Z,785.21
2017-07-15T00:33:15.103Z,785.21
2017-07-15T00:33:19.075Z,785.21
2017-07-15T00:33:23.153Z,785.19
2017-07-15T00:33:27.107Z,785.2
2017-07-15T00:33:31.425Z,785.18
2017-07-15T00:33:35.506Z,785.22
2017-07-15T00:33:39.953Z,785.21
2017-07-15T00:33:44.030Z,785.22
2017-07-15T00:33:48.247Z,785.19
2017-07-15T00:33:52.229Z,785.21
2017-07-15T00:33:56.071Z,785.16
2017-07-15T00:34:00.275Z,785.21
2017-07-15T00:34:04.432Z,785.2
2017-07-15T00:34:08.258Z,785.22
2017-07-15T00:34:12.484Z,785.21
2017-07-15T00:34:16.476Z,785.23
2017-07-15T00:34:20.544Z,785.23
2017-07-15T00:34:24.610Z,785.23
2017-07-15T00:34:28.687Z,785.23
2017-07-15T00:34:32.638Z,785.17
2017-07-15T00:34:36.572Z,785.19
2017-07-15T00:34:40.913Z,785.18
2017-07-15T00:34:45.241Z,785.19
2017-07-15T00:34:49.468Z,785.18
2017-07-15T00:34:53.677Z,785.2
2017-07-15T00:34:57.489Z,785.22
2017-07-15T00:35:01.324Z,785.26
2017-07-15T00:35:05.021Z,785.22
2017-07-15T00:35:08.970Z,785.22
2017-07-15T00:35:13.055Z,785.25
2017-07-15T00:35:17.146Z,785.24
2017-07-15T00:35:21.477Z,785.25
2017-07-15T00:35:25.538Z,785.27
2017-07-15T00:35:29.612Z,785.26
2017-07-15T00:35:33.833Z,785.23
2017-07-15T00:35:37.925Z,785.25
2017-07-15T00:35:42.375Z,785.25
2017-07-15T00:35:46.454Z,785.28
2017-07-15T00:35:50.410Z,785.25
2017-07-15T00:35:54.380Z,785.25
2017-07-15T00:35:58.709Z,785.28
2017-07-15T00:36:02.922Z,785.29
2017-07-15T00:36:06.978Z,785.27
2017-07-15T00:36:11.046Z,785.27
2017-07-15T00:36:15.130Z,785.28
2017-07-15T00:36:18.962Z,785.26
2017-07-15T00:36:23.231Z,785.25
2017-07-15T00:36:27.443Z,785.24
2017-07-15T00:36:31.643Z,785.28
2017-07-15T00:36:35.725Z,785.28
2017-07-15T00:36:39.674Z,785.27
2017-07-15T00:36:43.995Z,785.31
2017-07-15T00:36:48.076Z,785.29
2017-07-15T00:36:52.533Z,785.29
2017-07-15T00:36:56.491Z,785.27
2017-07-15T00:37:00.840Z,785.3
2017-07-15T00:37:05.120Z,785.27
2017-07-15T00:37:09.376Z,785.31
2017-07-15T00:37:13.580Z,785.29
2017-07-15T00:37:17.672Z,785.29
2017-07-15T00:37:21.935Z,785.27
2017-07-15T00:37:25.877Z,785.29
2017-07-15T00:37:29.969Z,785.28
2017-07-15T00:37:34.169Z,785.29
2017-07-15T00:37:37.875Z,785.31
2017-07-15T00:37:42.086Z,785.31
2017-07-15T00:37:46.165Z,785.29
2017-07-15T00:37:50.488Z,785.26
2017-07-15T00:37:54.710Z,785.29
2017-07-15T00:37:58.909Z,785.28
2017-07-15T00:38:03.235Z,785.32
2017-07-15T00:38:07.198Z,785.31
2017-07-15T00:38:11.265Z,785.31
2017-07-15T00:38:15.231Z,785.28
2017-07-15T00:38:19.313Z,785.31
2017-07-15T00:38:23.153Z,785.32
2017-07-15T00:38:27.250Z,785.3
2017-07-15T00:38:31.448Z,785.29
2017-07-15T00:38:35.524Z,785.3
2017-07-15T00:38:39.592Z,785.26
2017-07-15T00:38:43.421Z,785.3
2017-07-15T00:38:47.507Z,785.32
2017-07-15T00:38:51.585Z,785.29
2017-07-15T00:38:55.798Z,785.3
2017-07-15T00:39:00.145Z,785.33
2017-07-15T00:39:04.210Z,785.29
2017-07-15T00:39:08.535Z,785.28
2017-07-15T00:39:12.487Z,785.32
2017-07-15T00:39:16.697Z,785.31
2017-07-15T00:39:20.913Z,785.32
2017-07-15T00:39:24.853Z,785.3
2017-07-15T00:39:29.199Z,785.28
2017-07-15T00:39:33.280Z,785.32
2017-07-15T00:39:37.221Z,785.33
2017-07-15T00:39:41.425Z,785.33
2017-07-15T00:39:45.383Z,785.31
2017-07-15T00:39:49.206Z,785.32
2017-07-15T00:39:53.287Z,785.32
2017-07-15T00:39:57.238Z,785.32
2017-07-15T00:40:01.304Z,785.33
2017-07-15T00:40:05.375Z,785.32
2017-07-15T00:40:09.469Z,785.32
2017-07-15T00:40:13.543Z,785.31
2017-07-15T00:40:17.365Z,785.3
2017-07-15T00:40:21.742Z,785.31
2017-07-15T00:40:25.685Z,785.27
2017-07-15T00:40:29.773Z,785.28
2017-07-15T00:40:33.978Z,785.28
2017-07-15T00:40:38.058Z,785.32
2017-07-15T00:40:42.261Z,785.31
2017-07-15T00:40:46.341Z,785.31
2017-07-15T00:40:50.542Z,785.32
2017-07-15T00:40:54.221Z,785.35
2017-07-15T00:40:58.424Z,785.32
2017-07-15T00:41:02.385Z,785.27
2017-07-15T00:41:06.095Z,785.3
2017-07-15T00:41:10.265Z,785.32
2017-07-15T00:41:14.467Z,785.31
2017-07-15T00:41:18.685Z,785.31
2017-07-15T00:41:22.767Z,785.28
2017-07-15T00:41:26.838Z,785.28
2017-07-15T00:41:31.180Z,785.32
2017-07-15T00:41:35.011Z,785.32
2017-07-15T00:41:39.101Z,785.31
2017-07-15T00:41:43.176Z,785.32
2017-07-15T00:41:47.263Z,785.27
2017-07-15T00:41:51.212Z,785.34
2017-07-15T00:41:55.412Z,785.32
2017-07-15T00:41:59.626Z,785.36
2017-07-15T00:42:03.723Z,785.33
2017-07-15T00:42:07.535Z,785.34
2017-07-15T00:42:11.744Z,785.35
2017-07-15T00:42:15.810Z,785.39
2017-07-15T00:42:19.893Z,785.34
2017-07-15T00:42:23.983Z,785.34
2017-07-15T00:42:28.062Z,785.34
2017-07-15T00:42:32.382Z,785.33
2017-07-15T00:42:36.199Z,785.29
2017-07-15T00:42:40.147Z,785.31
2017-07-15T00:42:44.348Z,785.37
2017-07-15T00:42:48.675Z,785.36
2017-07-15T00:42:52.770Z,785.35
2017-07-15T00:42:56.960Z,785.34
2017-07-15T00:43:01.285Z,785.31
2017-07-15T00:43:04.984Z,785.28
2017-07-15T00:43:08.931Z,785.33
2017-07-15T00:43:12.887Z,785.34
2017-07-15T00:43:16.974Z,785.35
2017-07-15T00:43:21.196Z,785.32
2017-07-15T00:43:25.292Z,785.36
2017-07-15T00:43:29.482Z,785.35
2017-07-15T00:43:33.308Z,785.35
2017-07-15T00:43:37.372Z,785.33
2017-07-15T00:43:41.466Z,785.36
2017-07-15T00:43:45.290Z,785.33
2017-07-15T00:43:49.119Z,785.35
2017-07-15T00:43:53.077Z,785.3
2017-07-15T00:43:57.297Z,785.33
2017-07-15T00:44:01.135Z,785.34
2017-07-15T00:44:05.189Z,785.34
2017-07-15T00:44:09.013Z,785.34
2017-07-15T00:44:13.112Z,785.3
2017-07-15T00:44:16.941Z,785.33
2017-07-15T00:44:21.146Z,785.34
2017-07-15T00:44:25.347Z,785.33
2017-07-15T00:44:29.303Z,785.3
2017-07-15T00:44:33.378Z,785.32
2017-07-15T00:44:37.086Z,785.34
2017-07-15T00:44:41.418Z,785.31
2017-07-15T00:44:45.502Z,785.33
2017-07-15T00:44:49.704Z,785.34
2017-07-15T00:44:53.782Z,785.32
2017-07-15T00:44:57.862Z,785.31
2017-07-15T00:45:01.939Z,785.31
2017-07-15T00:45:05.763Z,785.3
2017-07-15T00:45:09.732Z,785.31
2017-07-15T00:45:13.564Z,785.33
2017-07-15T00:45:17.392Z,785.33
2017-07-15T00:45:21.353Z,785.32
2017-07-15T00:45:25.311Z,785.33
2017-07-15T00:45:29.386Z,785.31
2017-07-15T00:45:33.454Z,785.31
2017-07-15T00:45:37.403Z,785.33
2017-07-15T00:45:41.733Z,785.28
2017-07-15T00:45:46.073Z,785.26
2017-07-15T00:45:50.281Z,785.32
2017-07-15T00:45:54.476Z,785.31
2017-07-15T00:45:58.302Z,785.31
2017-07-15T00:46:02.038Z,785.31
2017-07-15T00:46:05.734Z,785.27
2017-07-15T00:46:09.684Z,785.3
2017-07-15T00:46:14.022Z,785.31
2017-07-15T00:46:18.227Z,785.29
2017-07-15T00:46:22.179Z,785.27
2017-07-15T00:46:26.143Z,785.33
2017-07-15T00:46:30.222Z,785.28
2017-07-15T00:46:34.324Z,785.26
2017-07-15T00:46:38.520Z,785.24
2017-07-15T00:46:42.461Z,785.21
2017-07-15T00:46:46.660Z,785.25
2017-07-15T00:46:50.753Z,785.26
2017-07-15T00:46:55.071Z,785.24
2017-07-15T00:46:59.275Z,785.25
2017-07-15T00:47:03.238Z,785.26
2017-07-15T00:47:07.185Z,785.25
2017-07-15T00:47:11.139Z,785.23
2017-07-15T00:47:15.085Z,785.23
2017-07-15T00:47:19.051Z,785.22
2017-07-15T00:47:23.244Z,785.16
2017-07-15T00:47:27.450Z,785.22
2017-07-15T00:47:31.767Z,785.2
2017-07-15T00:47:35.845Z,785.2
2017-07-15T00:47:40.087Z,785.22
2017-07-15T00:47:44.284Z,785.18
2017-07-15T00:47:48.372Z,785.2
2017-07-15T00:47:52.450Z,785.19
2017-07-15T00:47:56.531Z,785.17
2017-07-15T00:48:00.750Z,785.2
2017-07-15T00:48:04.697Z,785.21
2017-07-15T00:48:08.652Z,785.17
2017-07-15T00:48:12.734Z,785.2
2017-07-15T00:48:16.819Z,785.19
2017-07-15T00:48:21.050Z,785.19
2017-07-15T00:48:25.253Z,785.2
2017-07-15T00:48:29.197Z,785.22
2017-07-15T00:48:33.268Z,785.22
2017-07-15T00:48:37.080Z,785.19
2017-07-15T00:48:40.901Z,785.21
2017-07-15T00:48:45.097Z,785.25
2017-07-15T00:48:48.928Z,785.2
2017-07-15T00:48:53.027Z,785.22
2017-07-15T00:48:57.348Z,785.14
2017-07-15T00:49:01.558Z,785.16
2017-07-15T00:49:05.588Z,785.14
2017-07-15T00:49:09.802Z,785.21
2017-07-15T00:49:13.864Z,785.18
2017-07-15T00:49:18.324Z,785.14
2017-07-15T00:49:22.412Z,785.14
2017-07-15T00:49:26.741Z,785.15
2017-07-15T00:49:30.946Z,785.18
2017-07-15T00:49:34.644Z,785.18
2017-07-15T00:49:38.989Z,785.16
2017-07-15T00:49:43.188Z,785.17
2017-07-15T00:49:47.521Z,785.18
2017-07-15T00:49:51.475Z,785.18
2017-07-15T00:49:55.686Z,785.21
2017-07-15T00:49:59.749Z,785.21
2017-07-15T00:50:04.213Z,785.19
2017-07-15T00:50:08.435Z,785.21
2017-07-15T00:50:12.526Z,785.19
2017-07-15T00:50:16.733Z,785.18
2017-07-15T00:50:21.056Z,785.18
2017-07-15T00:50:25.029Z,785.18
2017-07-15T00:50:28.862Z,785.19
2017-07-15T00:50:33.069Z,785.21
2017-07-15T00:50:36.763Z,785.21
2017-07-15T00:50:40.966Z,785.22
2017-07-15T00:50:45.174Z,785.21
2017-07-15T00:50:49.119Z,785.21
2017-07-15T00:50:52.818Z,785.21
2017-07-15T00:50:56.894Z,785.23
2017-07-15T00:51:00.976Z,785.22